createdAt,value
2023-01-21T00:00:41.341Z,1007.29
2023-01-21T00:01:41.481Z,1007.34
2023-01-21T00:02:41.300Z,1007.33
2023-01-21T00:03:41.289Z,1007.38
2023-01-21T00:04:41.264Z,1007.40
2023-01-21T00:05:41.187Z,1007.39
2023-01-21T00:06:41.176Z,1007.40
2023-01-21T00:07:41.208Z,1007.42
2023-01-21T00:08:41.157Z,1007.42
2023-01-21T00:09:41.200Z,1007.38
2023-01-21T00:10:41.116Z,1007.41
2023-01-21T00:11:41.099Z,1007.43
2023-01-21T00:12:41.098Z,1007.43
2023-01-21T00:13:41.087Z,1007.44
2023-01-21T00:14:41.108Z,1007.48
2023-01-21T00:15:41.162Z,1007.48
2023-01-21T00:16:41.147Z,1007.51
2023-01-21T00:17:41.040Z,1007.50
2023-01-21T00:18:41.026Z,1007.53
2023-01-21T00:19:41.024Z,1007.53
2023-01-21T00:20:40.994Z,1007.56
2023-01-21T00:21:41.057Z,1007.59
2023-01-21T00:22:40.972Z,1007.61
2023-01-21T00:23:42.191Z,1007.60
2023-01-21T00:24:40.979Z,1007.59
2023-01-21T00:25:40.935Z,1007.66
2023-01-21T00:26:40.917Z,1007.67
2023-01-21T00:27:40.921Z,1007.68
2023-01-21T00:28:40.923Z,1007.67
2023-01-21T00:29:40.897Z,1007.73
2023-01-21T00:30:40.976Z,1007.71
2023-01-21T00:31:41.034Z,1007.68
2023-01-21T00:32:40.838Z,1007.68
2023-01-21T00:33:40.858Z,1007.72
2023-01-21T00:34:40.846Z,1007.72
2023-01-21T00:35:40.795Z,1007.75
2023-01-21T00:36:40.788Z,1007.78
2023-01-21T00:37:40.776Z,1007.78
2023-01-21T00:38:40.753Z,1007.79
2023-01-21T00:39:40.786Z,1007.78
2023-01-21T00:40:40.739Z,1007.79
2023-01-21T00:41:40.737Z,1007.84
2023-01-21T00:42:40.735Z,1007.83
2023-01-21T00:43:40.712Z,1007.85
2023-01-21T00:44:40.704Z,1007.83
2023-01-21T00:45:40.734Z,1007.83
2023-01-21T00:46:40.696Z,1007.84
2023-01-21T00:47:40.654Z,1007.90
2023-01-21T00:48:40.633Z,1007.88
2023-01-21T00:49:40.633Z,1007.90
2023-01-21T00:50:40.607Z,1007.90
2023-01-21T00:51:40.594Z,1007.88
2023-01-21T00:52:40.561Z,1007.93
2023-01-21T00:53:40.587Z,1007.94
2023-01-21T00:54:40.574Z,1007.95
2023-01-21T00:55:40.545Z,1007.93
2023-01-21T00:56:40.533Z,1007.94
2023-01-21T00:57:40.523Z,1007.96
2023-01-21T00:58:40.505Z,1007.99
2023-01-21T00:59:40.517Z,1008.03
2023-01-21T01:00:40.482Z,1008.05
2023-01-21T01:01:40.511Z,1008.05
2023-01-21T01:02:40.471Z,1008.10
2023-01-21T01:03:40.451Z,1008.09
2023-01-21T01:04:40.442Z,1008.10
2023-01-21T01:05:40.413Z,1008.09
2023-01-21T01:06:40.403Z,1008.15
2023-01-21T01:07:40.393Z,1008.14
2023-01-21T01:08:40.375Z,1008.15
2023-01-21T01:09:40.373Z,1008.19
2023-01-21T01:10:40.358Z,1008.17
2023-01-21T01:11:40.356Z,1008.23
2023-01-21T01:12:40.436Z,1008.23
2023-01-21T01:13:40.321Z,1008.24
2023-01-21T01:14:40.317Z,1008.25
2023-01-21T01:15:40.299Z,1008.24
2023-01-21T01:16:40.312Z,1008.27
2023-01-21T01:17:40.265Z,1008.30
2023-01-21T01:18:40.249Z,1008.26
2023-01-21T01:19:40.263Z,1008.31
2023-01-21T01:20:40.223Z,1008.32
2023-01-21T01:21:40.218Z,1008.34
2023-01-21T01:22:40.192Z,1008.35
2023-01-21T01:23:40.193Z,1008.36
2023-01-21T01:24:40.192Z,1008.37
2023-01-21T01:25:40.166Z,1008.41
2023-01-21T01:26:42.121Z,1008.40
2023-01-21T01:27:40.134Z,1008.47
2023-01-21T01:28:40.187Z,1008.46
2023-01-21T01:29:40.151Z,1008.53
2023-01-21T01:30:40.163Z,1008.56
2023-01-21T01:31:40.188Z,1008.56
2023-01-21T01:32:40.073Z,1008.63
2023-01-21T01:33:40.055Z,1008.61
2023-01-21T01:34:40.097Z,1008.62
2023-01-21T01:35:40.034Z,1008.64
2023-01-21T01:36:40.030Z,1008.64
2023-01-21T01:37:40.002Z,1008.65
2023-01-21T01:38:39.994Z,1008.71
2023-01-21T01:39:40.021Z,1008.75
2023-01-21T01:40:39.971Z,1008.75
2023-01-21T01:41:39.961Z,1008.76
2023-01-21T01:42:39.953Z,1008.83
2023-01-21T01:43:39.964Z,1008.83
2023-01-21T01:44:39.967Z,1008.84
2023-01-21T01:45:39.913Z,1008.84
2023-01-21T01:46:39.915Z,1008.87
2023-01-21T01:47:39.872Z,1008.88
2023-01-21T01:48:39.872Z,1008.91
2023-01-21T01:49:39.872Z,1008.92
2023-01-21T01:50:39.859Z,1008.96
2023-01-21T01:51:39.830Z,1009.00
2023-01-21T01:52:39.829Z,1009.03
2023-01-21T01:53:39.807Z,1009.04
2023-01-21T01:54:39.791Z,1009.06
2023-01-21T01:55:40.000Z,1009.03
2023-01-21T01:56:39.762Z,1009.06
2023-01-21T01:57:39.759Z,1009.06
2023-01-21T01:58:39.741Z,1009.07
2023-01-21T01:59:39.725Z,1009.11
2023-01-21T02:00:39.723Z,1009.16
2023-01-21T02:01:39.777Z,1009.15
2023-01-21T02:02:39.708Z,1009.16
2023-01-21T02:03:39.678Z,1009.19
2023-01-21T02:04:39.668Z,1009.20
2023-01-21T02:05:39.658Z,1009.24
2023-01-21T02:06:39.641Z,1009.30
2023-01-21T02:07:39.636Z,1009.32
2023-01-21T02:08:39.616Z,1009.33
2023-01-21T02:09:39.603Z,1009.34
2023-01-21T02:10:39.620Z,1009.34
2023-01-21T02:11:39.582Z,1009.36
2023-01-21T02:12:39.558Z,1009.39
2023-01-21T02:13:39.544Z,1009.39
2023-01-21T02:14:39.538Z,1009.36
2023-01-21T02:15:39.537Z,1009.39
2023-01-21T02:16:39.502Z,1009.38
2023-01-21T02:17:39.501Z,1009.43
2023-01-21T02:18:39.508Z,1009.39
2023-01-21T02:19:39.466Z,1009.40
2023-01-21T02:20:39.469Z,1009.42
2023-01-21T02:21:39.450Z,1009.41
2023-01-21T02:22:39.426Z,1009.47
2023-01-21T02:23:39.426Z,1009.48
2023-01-21T02:24:39.397Z,1009.54
2023-01-21T02:25:39.408Z,1009.52
2023-01-21T02:26:39.378Z,1009.54
2023-01-21T02:27:39.367Z,1009.57
2023-01-21T02:28:39.356Z,1009.53
2023-01-21T02:29:39.335Z,1009.57
2023-01-21T02:30:39.414Z,1009.58
2023-01-21T02:31:39.344Z,1009.60
2023-01-21T02:32:39.297Z,1009.63
2023-01-21T02:33:39.288Z,1009.64
2023-01-21T02:34:39.280Z,1009.67
2023-01-21T02:35:39.295Z,1009.72
2023-01-21T02:36:39.258Z,1009.68
2023-01-21T02:37:39.234Z,1009.71
2023-01-21T02:38:39.220Z,1009.70
2023-01-21T02:39:39.212Z,1009.69
2023-01-21T02:40:39.194Z,1009.73
2023-01-21T02:41:39.203Z,1009.72
2023-01-21T02:42:39.199Z,1009.71
2023-01-21T02:43:39.164Z,1009.73
2023-01-21T02:44:39.201Z,1009.76
2023-01-21T02:45:39.145Z,1009.79
2023-01-21T02:46:39.367Z,1009.81
2023-01-21T02:47:39.124Z,1009.79
2023-01-21T02:48:39.093Z,1009.80
2023-01-21T02:49:39.093Z,1009.75
2023-01-21T02:50:39.079Z,1009.78
2023-01-21T02:51:39.082Z,1009.76
2023-01-21T02:52:39.051Z,1009.81
2023-01-21T02:53:39.035Z,1009.79
2023-01-21T02:54:39.036Z,1009.81
2023-01-21T02:55:39.012Z,1009.80
2023-01-21T02:56:39.014Z,1009.85
2023-01-21T02:57:38.984Z,1009.84
2023-01-21T02:58:38.989Z,1009.83
2023-01-21T02:59:38.967Z,1009.83
2023-01-21T03:00:38.982Z,1009.82
2023-01-21T03:01:38.974Z,1009.84
2023-01-21T03:02:38.923Z,1009.84
2023-01-21T03:03:41.261Z,1009.88
2023-01-21T03:04:38.912Z,1009.87
2023-01-21T03:05:38.882Z,1009.87
2023-01-21T03:06:38.913Z,1009.86
2023-01-21T03:07:38.859Z,1009.89
2023-01-21T03:08:38.838Z,1009.93
2023-01-21T03:09:38.840Z,1009.90
2023-01-21T03:10:38.822Z,1009.94
2023-01-21T03:11:38.840Z,1009.93
2023-01-21T03:12:38.791Z,1009.97
2023-01-21T03:13:38.791Z,1010.05
2023-01-21T03:14:38.771Z,1009.98
2023-01-21T03:15:38.751Z,1010.00
2023-01-21T03:16:38.805Z,1010.03
2023-01-21T03:17:38.753Z,1010.05
2023-01-21T03:18:38.711Z,1010.04
2023-01-21T03:19:38.706Z,1010.05
2023-01-21T03:20:38.692Z,1010.10
2023-01-21T03:21:38.723Z,1010.10
2023-01-21T03:22:38.662Z,1010.13
2023-01-21T03:23:38.664Z,1010.12
2023-01-21T03:24:38.630Z,1010.14
2023-01-21T03:25:38.650Z,1010.16
2023-01-21T03:26:38.631Z,1010.14
2023-01-21T03:27:38.614Z,1010.17
2023-01-21T03:28:38.579Z,1010.21
2023-01-21T03:29:38.579Z,1010.21
2023-01-21T03:30:38.564Z,1010.21
2023-01-21T03:31:38.578Z,1010.17
2023-01-21T03:32:38.534Z,1010.21
2023-01-21T03:33:38.537Z,1010.23
2023-01-21T03:34:38.523Z,1010.25
2023-01-21T03:35:38.501Z,1010.23
2023-01-21T03:36:38.510Z,1010.20
2023-01-21T03:37:38.481Z,1010.22
2023-01-21T03:38:38.462Z,1010.26
2023-01-21T03:39:38.449Z,1010.24
2023-01-21T03:40:38.455Z,1010.28
2023-01-21T03:41:38.426Z,1010.29
2023-01-21T03:42:38.432Z,1010.28
2023-01-21T03:43:38.402Z,1010.30
2023-01-21T03:44:38.385Z,1010.33
2023-01-21T03:45:38.400Z,1010.33
2023-01-21T03:46:38.368Z,1010.31
2023-01-21T03:47:38.358Z,1010.35
2023-01-21T03:48:38.329Z,1010.34
2023-01-21T03:49:38.329Z,1010.35
2023-01-21T03:50:38.307Z,1010.38
2023-01-21T03:51:38.296Z,1010.38
2023-01-21T03:52:38.297Z,1010.39
2023-01-21T03:53:38.268Z,1010.39
2023-01-21T03:54:38.278Z,1010.46
2023-01-21T03:55:38.248Z,1010.43
2023-01-21T03:56:38.257Z,1010.47
2023-01-21T03:57:38.233Z,1010.45
2023-01-21T03:58:38.211Z,1010.43
2023-01-21T03:59:38.187Z,1010.46
2023-01-21T04:00:38.254Z,1010.43
2023-01-21T04:01:38.171Z,1010.46
2023-01-21T04:02:38.192Z,1010.52
2023-01-21T04:03:38.148Z,1010.57
2023-01-21T04:04:38.118Z,1010.54
2023-01-21T04:05:38.116Z,1010.55
2023-01-21T04:06:38.113Z,1010.52
2023-01-21T04:07:38.123Z,1010.55
2023-01-21T04:08:38.076Z,1010.51
2023-01-21T04:09:38.076Z,1010.53
2023-01-21T04:10:38.085Z,1010.59
2023-01-21T04:11:38.035Z,1010.60
2023-01-21T04:12:38.045Z,1010.60
2023-01-21T04:13:38.018Z,1010.61
2023-01-21T04:14:38.004Z,1010.65
2023-01-21T04:15:37.999Z,1010.60
2023-01-21T04:16:38.032Z,1010.63
2023-01-21T04:17:37.975Z,1010.60
2023-01-21T04:18:37.991Z,1010.69
2023-01-21T04:19:37.958Z,1010.68
2023-01-21T04:20:37.939Z,1010.71
2023-01-21T04:21:37.926Z,1010.72
2023-01-21T04:22:37.920Z,1010.73
2023-01-21T04:23:37.886Z,1010.74
2023-01-21T04:24:37.880Z,1010.72
2023-01-21T04:25:37.857Z,1010.73
2023-01-21T04:26:37.849Z,1010.71
2023-01-21T04:27:37.855Z,1010.72
2023-01-21T04:28:37.832Z,1010.73
2023-01-21T04:29:37.824Z,1010.72
2023-01-21T04:30:37.810Z,1010.73
2023-01-21T04:31:37.864Z,1010.76
2023-01-21T04:32:37.787Z,1010.74
2023-01-21T04:33:37.754Z,1010.81
2023-01-21T04:34:37.745Z,1010.80
2023-01-21T04:35:37.714Z,1010.81
2023-01-21T04:36:37.713Z,1010.84
2023-01-21T04:37:37.718Z,1010.89
2023-01-21T04:38:37.692Z,1010.90
2023-01-21T04:39:37.685Z,1010.88
2023-01-21T04:40:37.668Z,1010.90
2023-01-21T04:41:37.674Z,1010.92
2023-01-21T04:42:37.657Z,1010.93
2023-01-21T04:43:37.628Z,1010.93
2023-01-21T04:44:37.612Z,1010.94
2023-01-21T04:45:37.626Z,1011.00
2023-01-21T04:46:37.599Z,1010.99
2023-01-21T04:47:44.761Z,1011.00
2023-01-21T04:48:37.564Z,1011.01
2023-01-21T04:49:37.535Z,1011.01
2023-01-21T04:50:37.537Z,1010.96
2023-01-21T04:51:37.516Z,1011.01
2023-01-21T04:52:37.522Z,1011.02
2023-01-21T04:53:37.513Z,1011.03
2023-01-21T04:54:37.485Z,1011.00
2023-01-21T04:55:37.478Z,1011.01
2023-01-21T04:56:37.463Z,1011.01
2023-01-21T04:57:37.440Z,1011.06
2023-01-21T04:58:37.438Z,1011.05
2023-01-21T04:59:37.418Z,1011.07
2023-01-21T05:00:37.424Z,1011.05
2023-01-21T05:01:37.394Z,1011.06
2023-01-21T05:02:37.457Z,1011.07
2023-01-21T05:03:37.382Z,1011.07
2023-01-21T05:04:37.353Z,1011.11
2023-01-21T05:05:37.342Z,1011.12
2023-01-21T05:06:37.359Z,1011.16
2023-01-21T05:07:37.301Z,1011.20
2023-01-21T05:08:37.322Z,1011.22
2023-01-21T05:09:37.303Z,1011.17
2023-01-21T05:10:37.274Z,1011.18
2023-01-21T05:11:37.258Z,1011.17
2023-01-21T05:12:37.281Z,1011.16
2023-01-21T05:13:37.251Z,1011.18
2023-01-21T05:14:37.224Z,1011.17
2023-01-21T05:15:37.217Z,1011.16
2023-01-21T05:16:37.295Z,1011.14
2023-01-21T05:17:37.181Z,1011.09
2023-01-21T05:18:37.195Z,1011.13
2023-01-21T05:19:37.165Z,1011.11
2023-01-21T05:20:37.144Z,1011.14
2023-01-21T05:21:37.149Z,1011.12
2023-01-21T05:22:37.134Z,1011.15
2023-01-21T05:23:37.120Z,1011.14
2023-01-21T05:24:37.091Z,1011.20
2023-01-21T05:25:37.111Z,1011.24
2023-01-21T05:26:37.096Z,1011.24
2023-01-21T05:27:37.080Z,1011.28
2023-01-21T05:28:37.076Z,1011.29
2023-01-21T05:29:37.033Z,1011.31
2023-01-21T05:30:40.158Z,1011.28
2023-01-21T05:31:37.215Z,1011.30
2023-01-21T05:32:37.000Z,1011.30
2023-01-21T05:33:37.003Z,1011.35
2023-01-21T05:34:36.972Z,1011.35
2023-01-21T05:35:36.950Z,1011.32
2023-01-21T05:36:36.956Z,1011.33
2023-01-21T05:37:36.930Z,1011.35
2023-01-21T05:38:36.950Z,1011.39
2023-01-21T05:39:36.904Z,1011.41
2023-01-21T05:40:36.889Z,1011.44
2023-01-21T05:41:36.875Z,1011.44
2023-01-21T05:42:36.860Z,1011.45
2023-01-21T05:43:36.850Z,1011.45
2023-01-21T05:44:36.884Z,1011.48
2023-01-21T05:45:36.819Z,1011.44
2023-01-21T05:46:36.826Z,1011.49
2023-01-21T05:47:36.804Z,1011.51
2023-01-21T05:48:36.779Z,1011.54
2023-01-21T05:49:36.815Z,1011.52
2023-01-21T05:50:36.766Z,1011.51
2023-01-21T05:51:36.749Z,1011.50
2023-01-21T05:52:36.739Z,1011.54
2023-01-21T05:53:36.729Z,1011.50
2023-01-21T05:54:36.764Z,1011.53
2023-01-21T05:55:36.700Z,1011.55
2023-01-21T05:56:36.688Z,1011.54
2023-01-21T05:57:36.677Z,1011.51
2023-01-21T05:58:36.669Z,1011.54
2023-01-21T05:59:36.657Z,1011.53
2023-01-21T06:00:36.639Z,1011.54
2023-01-21T06:01:36.633Z,1011.55
2023-01-21T06:02:36.690Z,1011.55
2023-01-21T06:03:36.644Z,1011.60
2023-01-21T06:04:36.618Z,1011.59
2023-01-21T06:05:36.580Z,1011.60
2023-01-21T06:06:36.557Z,1011.59
2023-01-21T06:07:36.548Z,1011.60
2023-01-21T06:08:36.546Z,1011.66
2023-01-21T06:09:36.538Z,1011.63
2023-01-21T06:10:36.507Z,1011.62
2023-01-21T06:11:36.488Z,1011.60
2023-01-21T06:12:36.496Z,1011.60
2023-01-21T06:13:36.469Z,1011.55
2023-01-21T06:14:36.475Z,1011.59
2023-01-21T06:15:36.478Z,1011.62
2023-01-21T06:16:36.459Z,1011.61
2023-01-21T06:17:36.425Z,1011.64
2023-01-21T06:18:36.427Z,1011.64
2023-01-21T06:19:36.428Z,1011.67
2023-01-21T06:20:36.401Z,1011.69
2023-01-21T06:21:36.367Z,1011.67
2023-01-21T06:22:36.365Z,1011.73
2023-01-21T06:23:36.359Z,1011.71
2023-01-21T06:24:36.356Z,1011.71
2023-01-21T06:25:36.314Z,1011.77
2023-01-21T06:26:36.316Z,1011.78
2023-01-21T06:27:36.294Z,1011.81
2023-01-21T06:28:36.276Z,1011.83
2023-01-21T06:29:36.277Z,1011.78
2023-01-21T06:30:36.273Z,1011.79
2023-01-21T06:31:36.398Z,1011.84
2023-01-21T06:32:36.223Z,1011.83
2023-01-21T06:33:36.222Z,1011.86
2023-01-21T06:34:36.233Z,1011.87
2023-01-21T06:35:36.190Z,1011.91
2023-01-21T06:36:36.183Z,1011.89
2023-01-21T06:37:36.202Z,1011.92
2023-01-21T06:38:36.171Z,1011.92
2023-01-21T06:39:36.160Z,1011.91
2023-01-21T06:40:36.134Z,1011.93
2023-01-21T06:41:36.128Z,1011.91
2023-01-21T06:42:36.115Z,1011.92
2023-01-21T06:43:36.097Z,1011.97
2023-01-21T06:44:36.083Z,1011.94
2023-01-21T06:45:36.092Z,1011.95
2023-01-21T06:46:36.098Z,1011.97
2023-01-21T06:47:36.042Z,1011.99
2023-01-21T06:48:36.038Z,1012.03
2023-01-21T06:49:36.036Z,1012.02
2023-01-21T06:50:36.024Z,1012.02
2023-01-21T06:51:35.990Z,1012.01
2023-01-21T06:52:35.980Z,1012.00
2023-01-21T06:53:35.959Z,1012.01
2023-01-21T06:54:35.959Z,1012.04
2023-01-21T06:55:35.962Z,1012.07
2023-01-21T06:56:35.993Z,1012.07
2023-01-21T06:57:35.923Z,1012.05
2023-01-21T06:58:35.933Z,1012.10
2023-01-21T06:59:35.892Z,1012.01
2023-01-21T07:00:35.906Z,1012.11
2023-01-21T07:01:35.895Z,1012.12
2023-01-21T07:02:35.883Z,1012.15
2023-01-21T07:03:35.858Z,1012.11
2023-01-21T07:04:35.890Z,1012.17
2023-01-21T07:05:35.838Z,1012.15
2023-01-21T07:06:35.805Z,1012.14
2023-01-21T07:07:35.791Z,1012.19
2023-01-21T07:08:35.765Z,1012.21
2023-01-21T07:09:35.756Z,1012.17
2023-01-21T07:10:35.803Z,1012.24
2023-01-21T07:11:35.739Z,1012.28
2023-01-21T07:12:35.729Z,1012.24
2023-01-21T07:13:35.729Z,1012.24
2023-01-21T07:14:35.697Z,1012.29
2023-01-21T07:15:35.701Z,1012.36
2023-01-21T07:16:35.685Z,1012.35
2023-01-21T07:17:35.658Z,1012.35
2023-01-21T07:18:35.655Z,1012.39
2023-01-21T07:19:35.637Z,1012.37
2023-01-21T07:20:35.657Z,1012.43
2023-01-21T07:21:35.620Z,1012.40
2023-01-21T07:22:35.613Z,1012.41
2023-01-21T07:23:35.577Z,1012.42
2023-01-21T07:24:35.569Z,1012.45
2023-01-21T07:25:35.580Z,1012.45
2023-01-21T07:26:35.549Z,1012.48
2023-01-21T07:27:35.531Z,1012.48
2023-01-21T07:28:35.521Z,1012.55
2023-01-21T07:29:35.506Z,1012.54
2023-01-21T07:30:35.521Z,1012.53
2023-01-21T07:31:35.606Z,1012.57
2023-01-21T07:32:35.473Z,1012.56
2023-01-21T07:33:35.455Z,1012.58
2023-01-21T07:34:35.455Z,1012.61
2023-01-21T07:35:35.463Z,1012.64
2023-01-21T07:36:35.427Z,1012.67
2023-01-21T07:37:35.404Z,1012.71
2023-01-21T07:38:35.403Z,1012.69
2023-01-21T07:39:35.377Z,1012.72
2023-01-21T07:40:35.397Z,1012.73
2023-01-21T07:41:35.356Z,1012.79
2023-01-21T07:42:35.355Z,1012.73
2023-01-21T07:43:35.314Z,1012.72
2023-01-21T07:44:35.325Z,1012.78
2023-01-21T07:45:35.337Z,1012.80
2023-01-21T07:46:35.345Z,1012.82
2023-01-21T07:47:35.274Z,1012.83
2023-01-21T07:48:35.280Z,1012.83
2023-01-21T07:49:35.243Z,1012.83
2023-01-21T07:50:35.253Z,1012.81
2023-01-21T07:51:35.220Z,1012.85
2023-01-21T07:52:35.235Z,1012.91
2023-01-21T07:53:35.192Z,1012.90
2023-01-21T07:54:35.231Z,1012.89
2023-01-21T07:55:35.194Z,1012.94
2023-01-21T07:56:35.174Z,1012.96
2023-01-21T07:57:35.163Z,1012.93
2023-01-21T07:58:35.155Z,1012.92
2023-01-21T07:59:35.133Z,1012.93
2023-01-21T08:00:35.143Z,1012.96
2023-01-21T08:01:35.168Z,1012.98
2023-01-21T08:02:35.321Z,1012.97
2023-01-21T08:03:35.083Z,1012.97
2023-01-21T08:04:35.082Z,1013.04
2023-01-21T08:05:35.083Z,1013.01
2023-01-21T08:06:35.062Z,1012.99
2023-01-21T08:07:35.044Z,1013.01
2023-01-21T08:08:35.047Z,1012.98
2023-01-21T08:09:35.001Z,1013.07
2023-01-21T08:10:35.012Z,1013.07
2023-01-21T08:11:34.982Z,1013.00
2023-01-21T08:12:34.982Z,1013.02
2023-01-21T08:13:34.952Z,1012.98
2023-01-21T08:14:34.966Z,1013.01
2023-01-21T08:15:34.944Z,1013.00
2023-01-21T08:16:34.976Z,1013.00
2023-01-21T08:17:34.903Z,1013.05
2023-01-21T08:18:34.891Z,1013.03
2023-01-21T08:19:34.886Z,1013.09
2023-01-21T08:20:34.891Z,1013.09
2023-01-21T08:21:34.880Z,1013.14
2023-01-21T08:22:34.866Z,1013.07
2023-01-21T08:23:34.829Z,1013.06
2023-01-21T08:24:34.857Z,1013.03
2023-01-21T08:25:34.821Z,1013.05
2023-01-21T08:26:34.790Z,1013.07
2023-01-21T08:27:34.779Z,1013.05
2023-01-21T08:28:34.763Z,1013.10
2023-01-21T08:29:34.773Z,1013.08
2023-01-21T08:30:34.794Z,1013.11
2023-01-21T08:31:34.786Z,1013.17
2023-01-21T08:32:34.730Z,1013.14
2023-01-21T08:33:34.699Z,1013.11
2023-01-21T08:34:34.707Z,1013.13
2023-01-21T08:35:34.691Z,1013.14
2023-01-21T08:36:34.658Z,1013.15
2023-01-21T08:37:34.659Z,1013.11
2023-01-21T08:38:34.634Z,1013.18
2023-01-21T08:39:34.621Z,1013.18
2023-01-21T08:40:34.628Z,1013.17
2023-01-21T08:41:34.597Z,1013.17
2023-01-21T08:42:34.588Z,1013.21
2023-01-21T08:43:34.568Z,1013.17
2023-01-21T08:44:34.558Z,1013.21
2023-01-21T08:45:34.569Z,1013.22
2023-01-21T08:46:34.572Z,1013.23
2023-01-21T08:47:34.555Z,1013.22
2023-01-21T08:48:34.521Z,1013.20
2023-01-21T08:49:34.511Z,1013.22
2023-01-21T08:50:34.499Z,1013.19
2023-01-21T08:51:34.496Z,1013.19
2023-01-21T08:52:34.451Z,1013.23
2023-01-21T08:53:34.448Z,1013.21
2023-01-21T08:54:34.438Z,1013.22
2023-01-21T08:55:34.430Z,1013.26
2023-01-21T08:56:34.416Z,1013.24
2023-01-21T08:57:34.396Z,1013.21
2023-01-21T08:58:34.386Z,1013.27
2023-01-21T08:59:34.375Z,1013.29
2023-01-21T09:00:34.363Z,1013.31
2023-01-21T09:01:34.396Z,1013.27
2023-01-21T09:02:34.326Z,1013.28
2023-01-21T09:03:34.316Z,1013.29
2023-01-21T09:04:34.305Z,1013.27
2023-01-21T09:05:34.307Z,1013.29
2023-01-21T09:06:34.296Z,1013.27
2023-01-21T09:07:34.265Z,1013.30
2023-01-21T09:08:34.268Z,1013.31
2023-01-21T09:09:34.254Z,1013.32
2023-01-21T09:10:34.259Z,1013.32
2023-01-21T09:11:34.242Z,1013.25
2023-01-21T09:12:34.200Z,1013.25
2023-01-21T09:13:34.235Z,1013.28
2023-01-21T09:14:34.171Z,1013.30
2023-01-21T09:15:34.174Z,1013.32
2023-01-21T09:16:34.207Z,1013.30
2023-01-21T09:17:34.128Z,1013.30
2023-01-21T09:18:34.125Z,1013.32
2023-01-21T09:19:34.112Z,1013.32
2023-01-21T09:20:34.105Z,1013.33
2023-01-21T09:21:34.128Z,1013.35
2023-01-21T09:22:34.069Z,1013.31
2023-01-21T09:23:34.079Z,1013.33
2023-01-21T09:24:34.064Z,1013.35
2023-01-21T09:25:34.045Z,1013.35
2023-01-21T09:26:34.058Z,1013.36
2023-01-21T09:27:34.012Z,1013.36
2023-01-21T09:28:34.006Z,1013.37
2023-01-21T09:29:34.005Z,1013.38
2023-01-21T09:30:33.976Z,1013.41
2023-01-21T09:31:34.014Z,1013.37
2023-01-21T09:32:33.950Z,1013.44
2023-01-21T09:33:33.939Z,1013.41
2023-01-21T09:34:35.759Z,1013.41
2023-01-21T09:35:33.930Z,1013.43
2023-01-21T09:36:33.923Z,1013.44
2023-01-21T09:37:33.930Z,1013.47
2023-01-21T09:38:33.930Z,1013.45
2023-01-21T09:39:33.962Z,1013.42
2023-01-21T09:40:33.852Z,1013.47
2023-01-21T09:41:33.855Z,1013.48
2023-01-21T09:42:33.844Z,1013.49
2023-01-21T09:43:33.815Z,1013.52
2023-01-21T09:44:33.800Z,1013.51
2023-01-21T09:45:33.851Z,1013.53
2023-01-21T09:46:33.804Z,1013.53
2023-01-21T09:47:33.762Z,1013.52
2023-01-21T09:48:33.768Z,1013.57
2023-01-21T09:49:33.736Z,1013.58
2023-01-21T09:50:33.725Z,1013.61
2023-01-21T09:51:33.742Z,1013.61
2023-01-21T09:52:33.704Z,1013.62
2023-01-21T09:53:33.832Z,1013.63
2023-01-21T09:54:33.687Z,1013.62
2023-01-21T09:55:33.667Z,1013.65
2023-01-21T09:56:33.660Z,1013.68
2023-01-21T09:57:33.809Z,1013.69
2023-01-21T09:58:34.296Z,1013.69
2023-01-21T09:59:36.413Z,1013.72
2023-01-21T10:00:35.960Z,1013.75
2023-01-21T10:01:34.305Z,1013.72
2023-01-21T10:02:33.564Z,1013.71
2023-01-21T10:03:33.566Z,1013.72
2023-01-21T10:04:33.590Z,1013.72
2023-01-21T10:05:33.543Z,1013.70
2023-01-21T10:06:33.547Z,1013.73
2023-01-21T10:07:33.523Z,1013.74
2023-01-21T10:08:33.502Z,1013.75
2023-01-21T10:09:33.478Z,1013.73
2023-01-21T10:10:33.473Z,1013.72
2023-01-21T10:11:33.469Z,1013.72
2023-01-21T10:12:33.442Z,1013.75
2023-01-21T10:13:33.460Z,1013.74
2023-01-21T10:14:33.419Z,1013.76
2023-01-21T10:15:33.429Z,1013.74
2023-01-21T10:16:33.449Z,1013.73
2023-01-21T10:17:33.400Z,1013.72
2023-01-21T10:18:33.380Z,1013.70
2023-01-21T10:19:33.402Z,1013.69
2023-01-21T10:20:33.339Z,1013.69
2023-01-21T10:21:33.371Z,1013.70
2023-01-21T10:22:33.336Z,1013.71
2023-01-21T10:23:33.311Z,1013.73
2023-01-21T10:24:33.286Z,1013.78
2023-01-21T10:25:33.293Z,1013.77
2023-01-21T10:26:33.267Z,1013.77
2023-01-21T10:27:33.281Z,1013.78
2023-01-21T10:28:33.236Z,1013.79
2023-01-21T10:29:33.234Z,1013.80
2023-01-21T10:30:33.369Z,1013.82
2023-01-21T10:31:33.300Z,1013.78
2023-01-21T10:32:33.200Z,1013.74
2023-01-21T10:33:33.179Z,1013.75
2023-01-21T10:34:33.147Z,1013.77
2023-01-21T10:35:33.155Z,1013.73
2023-01-21T10:36:35.182Z,1013.73
2023-01-21T10:37:33.137Z,1013.74
2023-01-21T10:38:33.108Z,1013.71
2023-01-21T10:39:33.095Z,1013.70
2023-01-21T10:40:33.069Z,1013.66
2023-01-21T10:41:33.085Z,1013.64
2023-01-21T10:42:33.076Z,1013.64
2023-01-21T10:43:33.052Z,1013.65
2023-01-21T10:44:33.035Z,1013.70
2023-01-21T10:45:33.022Z,1013.67
2023-01-21T10:46:33.005Z,1013.73
2023-01-21T10:47:33.014Z,1013.75
2023-01-21T10:48:32.969Z,1013.74
2023-01-21T10:49:32.996Z,1013.72
2023-01-21T10:50:32.961Z,1013.69
2023-01-21T10:51:32.966Z,1013.71
2023-01-21T10:52:32.944Z,1013.73
2023-01-21T10:53:32.918Z,1013.71
2023-01-21T10:54:33.057Z,1013.69
2023-01-21T10:55:32.911Z,1013.71
2023-01-21T10:56:32.873Z,1013.65
2023-01-21T10:57:32.884Z,1013.65
2023-01-21T10:58:32.882Z,1013.65
2023-01-21T10:59:33.453Z,1013.65
2023-01-21T11:00:32.826Z,1013.67
2023-01-21T11:01:32.945Z,1013.68
2023-01-21T11:02:32.890Z,1013.68
2023-01-21T11:03:32.795Z,1013.67
2023-01-21T11:04:32.798Z,1013.68
2023-01-21T11:05:32.794Z,1013.66
2023-01-21T11:06:32.783Z,1013.68
2023-01-21T11:07:32.754Z,1013.67
2023-01-21T11:08:32.757Z,1013.64
2023-01-21T11:09:32.728Z,1013.65
2023-01-21T11:10:32.701Z,1013.60
2023-01-21T11:11:32.709Z,1013.59
2023-01-21T11:12:32.709Z,1013.56
2023-01-21T11:13:32.673Z,1013.56
2023-01-21T11:14:32.654Z,1013.61
2023-01-21T11:15:32.718Z,1013.61
2023-01-21T11:16:32.640Z,1013.59
2023-01-21T11:17:32.642Z,1013.63
2023-01-21T11:18:32.605Z,1013.61
2023-01-21T11:19:32.601Z,1013.59
2023-01-21T11:20:32.582Z,1013.55
2023-01-21T11:21:32.573Z,1013.56
2023-01-21T11:22:32.575Z,1013.59
2023-01-21T11:23:32.543Z,1013.59
2023-01-21T11:24:32.506Z,1013.60
2023-01-21T11:25:32.552Z,1013.59
2023-01-21T11:26:32.514Z,1013.59
2023-01-21T11:27:32.562Z,1013.55
2023-01-21T11:28:32.554Z,1013.54
2023-01-21T11:29:32.472Z,1013.56
2023-01-21T11:30:48.992Z,1013.59
2023-01-21T11:31:33.538Z,1013.59
2023-01-21T11:32:32.441Z,1013.62
2023-01-21T11:33:32.413Z,1013.59
2023-01-21T11:34:32.414Z,1013.60
2023-01-21T11:35:32.391Z,1013.58
2023-01-21T11:36:32.372Z,1013.60
2023-01-21T11:37:32.391Z,1013.60
2023-01-21T11:38:32.365Z,1013.56
2023-01-21T11:39:32.357Z,1013.54
2023-01-21T11:40:32.321Z,1013.51
2023-01-21T11:41:32.311Z,1013.48
2023-01-21T11:42:32.332Z,1013.51
2023-01-21T11:43:32.295Z,1013.54
2023-01-21T11:44:32.270Z,1013.52
2023-01-21T11:45:32.259Z,1013.52
2023-01-21T11:46:32.298Z,1013.55
2023-01-21T11:47:33.969Z,1013.59
2023-01-21T11:48:32.245Z,1013.58
2023-01-21T11:49:32.220Z,1013.57
2023-01-21T11:50:32.191Z,1013.59
2023-01-21T11:51:32.171Z,1013.54
2023-01-21T11:52:32.162Z,1013.56
2023-01-21T11:53:32.201Z,1013.54
2023-01-21T11:54:32.141Z,1013.54
2023-01-21T11:55:32.141Z,1013.53
2023-01-21T11:56:32.111Z,1013.55
2023-01-21T11:57:32.109Z,1013.59
2023-01-21T11:58:32.136Z,1013.57
2023-01-21T11:59:34.120Z,1013.57
2023-01-21T12:00:32.059Z,1013.58
2023-01-21T12:01:32.051Z,1013.60
2023-01-21T12:02:32.082Z,1013.54
2023-01-21T12:03:32.066Z,1013.50
2023-01-21T12:04:32.010Z,1013.54
2023-01-21T12:05:32.000Z,1013.58